Time;durP1;ratioP1;P1;durP2;ratioP2;P2;SDS_P1;SDS_P2;PMS_P1;PMS_P2;Temp;Humidity;BMP_temperature;BMP_pressure;BME280_temperature;BME280_humidity;BME280_pressure;Samples;Min_cycle;Max_cycle;Signal;HPM_P1;HPM_P2
2021/05/27 00:02:11;;;;;;;7.97;2.50;;;;;;;15.11;46.00;98273.19;4944350;28;20759;-70
2021/05/27 00:04:37;;;;;;;5.47;2.20;;;;;;;15.04;46.00;98273.69;4943330;29;20134;-71
2021/05/27 00:07:02;;;;;;;7.00;2.38;;;;;;;14.96;46.43;98264.31;4945384;29;20516;-71
2021/05/27 00:09:29;;;;;;;4.22;2.13;;;;;;;14.94;46.68;98274.06;4945594;28;20067;-70
2021/05/27 00:11:55;;;;;;;7.93;2.30;;;;;;;14.91;46.69;98269.19;4945965;29;20596;-70
2021/05/27 00:14:20;;;;;;;5.13;1.98;;;;;;;14.86;46.73;98272.94;4945330;28;20031;-70
2021/05/27 00:16:46;;;;;;;6.35;1.75;;;;;;;14.81;46.64;98268.44;4945446;28;20031;-70
2021/05/27 00:19:11;;;;;;;3.92;1.88;;;;;;;14.78;46.53;98273.78;4946669;28;20474;-70
2021/05/27 00:21:37;;;;;;;5.72;1.80;;;;;;;14.77;46.52;98272.16;4946801;29;20404;-69
2021/05/27 00:24:03;;;;;;;3.58;1.48;;;;;;;14.76;46.43;98279.66;4949417;29;20397;-70
2021/05/27 00:26:29;;;;;;;4.60;1.55;;;;;;;14.72;46.26;98275.91;4950942;29;20031;-69
2021/05/27 00:28:54;;;;;;;5.90;2.10;;;;;;;14.67;46.10;98279.59;4952132;29;20034;-70
2021/05/27 00:31:19;;;;;;;2.58;1.17;;;;;;;14.65;46.31;98283.84;4951715;28;20474;-70
2021/05/27 00:33:45;;;;;;;2.75;1.20;;;;;;;14.62;45.60;98276.22;4952016;29;20027;-70
2021/05/27 00:36:10;;;;;;;3.38;1.42;;;;;;;14.58;46.28;98268.59;4951567;28;20576;-70
2021/05/27 00:38:35;;;;;;;2.38;1.35;;;;;;;14.59;46.16;98278.50;4951249;28;20126;-71
2021/05/27 00:41:01;;;;;;;5.38;1.42;;;;;;;14.59;46.05;98261.13;4950357;28;20527;-70
2021/05/27 00:43:26;;;;;;;3.58;1.67;;;;;;;14.57;45.73;98266.97;4951877;28;20524;-71
2021/05/27 00:45:52;;;;;;;4.30;1.90;;;;;;;14.54;45.71;98258.56;4951454;28;20502;-70
2021/05/27 00:51:01;;;;;;;4.55;1.52;;;;;;;14.51;45.01;98262.75;4951849;29;20621;-71
2021/05/27 00:53:27;;;;;;;3.80;1.70;;;;;;;14.49;45.43;98278.81;4952525;28;20114;-71
2021/05/27 00:55:54;;;;;;;4.03;1.73;;;;;;;14.47;45.43;98278.34;4952268;29;20067;-70
2021/05/27 00:58:23;;;;;;;5.60;1.38;;;;;;;14.45;45.47;98277.88;4943358;28;20039;-71
2021/05/27 01:00:48;;;;;;;5.25;1.80;;;;;;;14.44;45.44;98276.25;4942067;29;20029;-71
2021/05/27 01:03:14;;;;;;;5.82;1.80;;;;;;;14.47;45.55;98283.06;4949909;28;20456;-70
2021/05/27 01:05:39;;;;;;;2.78;1.25;;;;;;;14.45;45.35;98280.66;4951235;29;20046;-70
2021/05/27 01:08:05;;;;;;;2.92;1.15;;;;;;;14.40;45.12;98278.06;4946977;29;20097;-71
2021/05/27 01:10:31;;;;;;;2.97;1.27;;;;;;;14.37;45.35;98279.50;4941498;28;20106;-71
2021/05/27 01:12:57;;;;;;;4.35;1.60;;;;;;;14.35;45.33;98284.53;4943151;29;20027;-71
2021/05/27 01:15:27;;;;;;;3.97;1.42;;;;;;;14.33;45.31;98284.03;4943517;29;20031;-71
2021/05/27 01:17:53;;;;;;;2.25;1.25;;;;;;;14.28;45.26;98279.50;4941384;28;20020;-70
2021/05/27 01:20:18;;;;;;;2.58;1.13;;;;;;;14.23;45.31;98285.19;4942141;29;20054;-70
2021/05/27 01:22:44;;;;;;;2.63;0.93;;;;;;;14.23;45.33;98289.91;4945247;28;20031;-70
2021/05/27 01:25:12;;;;;;;3.80;1.20;;;;;;;14.19;45.47;98286.97;4946324;28;20086;-71
2021/05/27 01:27:38;;;;;;;3.20;1.27;;;;;;;14.15;45.72;98283.25;4943481;29;20043;-70
2021/05/27 01:30:07;;;;;;;2.65;1.17;;;;;;;14.11;45.66;98290.53;4944573;29;20039;-71
2021/05/27 01:32:33;;;;;;;2.10;1.15;;;;;;;14.09;45.96;98288.13;4944850;29;20028;-71
2021/05/27 01:34:59;;;;;;;3.92;1.20;;;;;;;14.05;45.76;98289.91;4944205;28;20529;-70
2021/05/27 01:37:24;;;;;;;3.70;1.33;;;;;;;13.99;46.22;98289.25;4944173;28;20077;-71
2021/05/27 01:39:50;;;;;;;2.70;1.20;;;;;;;13.95;46.20;98292.97;4945281;28;20027;-74
2021/05/27 01:42:15;;;;;;;3.08;1.20;;;;;;;13.93;46.28;98289.72;4939510;29;20026;-71
2021/05/27 01:44:42;;;;;;;3.55;1.30;;;;;;;13.94;46.57;98308.69;4938406;29;20570;-70
2021/05/27 01:47:08;;;;;;;3.55;1.50;;;;;;;13.91;46.63;98290.06;4939059;29;20019;-70
2021/05/27 01:49:33;;;;;;;2.90;1.30;;;;;;;13.95;46.58;98302.06;4938757;29;20024;-70
2021/05/27 01:51:59;;;;;;;3.08;1.10;;;;;;;13.99;46.54;98300.28;4940148;29;20043;-70
2021/05/27 01:54:24;;;;;;;2.75;1.38;;;;;;;14.02;46.64;98300.78;4939661;28;20027;-70
2021/05/27 01:56:50;;;;;;;2.75;1.10;;;;;;;14.02;46.65;98298.81;4940615;29;20031;-71
2021/05/27 01:59:15;;;;;;;4.07;1.15;;;;;;;13.99;46.77;98292.00;4941140;28;20490;-70
2021/05/27 02:01:40;;;;;;;2.15;1.17;;;;;;;13.99;46.71;98288.44;4940887;29;20031;-71
2021/05/27 02:04:06;;;;;;;4.78;0.98;;;;;;;13.98;46.72;98290.38;4942305;28;20035;-70
2021/05/27 02:06:31;;;;;;;3.70;1.17;;;;;;;13.94;46.78;98291.34;4941161;29;20031;-70
2021/05/27 02:09:12;;;;;;;2.95;1.30;;;;;;;13.90;46.98;98287.59;4949494;29;20055;-70
2021/05/27 02:11:49;;;;;;;2.45;1.00;;;;;;;13.91;47.04;98298.31;4942389;29;20474;-71
2021/05/27 02:14:19;;;;;;;2.63;1.20;;;;;;;13.90;46.95;98282.91;4943274;29;20527;-70
2021/05/27 02:16:44;;;;;;;2.08;1.10;;;;;;;13.91;47.08;98303.84;4944764;28;20023;-70
2021/05/27 02:19:11;;;;;;;7.32;1.40;;;;;;;13.87;47.20;98291.81;4944950;28;20027;-70
2021/05/27 02:21:37;;;;;;;2.92;1.40;;;;;;;13.85;47.48;98294.09;4943647;29;20056;-71
2021/05/27 02:24:03;;;;;;;3.97;1.33;;;;;;;13.84;47.44;98300.75;4948447;29;20019;-70
2021/05/27 02:26:29;;;;;;;3.83;1.20;;;;;;;13.80;47.83;98295.06;4948643;29;20113;-69
2021/05/27 02:28:55;;;;;;;2.92;1.33;;;;;;;13.80;47.38;98297.81;4948661;29;20433;-69
2021/05/27 02:31:22;;;;;;;1.75;1.02;;;;;;;13.81;47.58;98295.88;4945460;28;20442;-70
2021/05/27 02:33:49;;;;;;;10.93;1.30;;;;;;;13.77;47.52;98305.91;4948918;28;20484;-69
2021/05/27 02:36:15;;;;;;;2.40;1.10;;;;;;;13.75;47.63;98294.38;4948914;29;20031;-69
2021/05/27 02:38:40;;;;;;;4.65;1.23;;;;;;;13.73;47.48;98294.72;4948686;28;20046;-70
2021/05/27 02:41:06;;;;;;;4.45;1.13;;;;;;;13.69;47.58;98294.53;4944879;29;20094;-69
2021/05/27 02:43:33;;;;;;;2.17;1.10;;;;;;;13.63;47.58;98293.09;4949193;29;20371;-70
2021/05/27 02:46:02;;;;;;;3.20;1.30;;;;;;;13.59;47.73;98296.78;4943533;28;20039;-70
2021/05/27 02:48:31;;;;;;;3.83;1.45;;;;;;;13.54;47.71;98301.31;4932903;29;20394;-70
2021/05/27 02:50:58;;;;;;;2.95;1.13;;;;;;;13.54;48.01;98300.50;4932891;29;20081;-70
2021/05/27 02:53:24;;;;;;;5.30;1.73;;;;;;;13.51;48.13;98301.16;4933169;29;20031;-70
2021/05/27 02:55:53;;;;;;;6.47;1.70;;;;;;;13.49;48.20;98298.69;4932912;29;20498;-69
2021/05/27 02:58:19;;;;;;;4.43;1.30;;;;;;;13.49;48.37;98306.97;4932827;29;20118;-69
2021/05/27 03:00:45;;;;;;;3.10;1.20;;;;;;;13.49;48.22;98303.41;4932278;29;20027;-70
2021/05/27 03:03:10;;;;;;;5.28;1.50;;;;;;;13.48;48.33;98310.84;4932395;29;20471;-69
2021/05/27 03:05:36;;;;;;;4.63;1.70;;;;;;;13.49;48.33;98317.97;4946629;29;20041;-69
2021/05/27 03:08:02;;;;;;;5.35;1.50;;;;;;;13.46;48.35;98306.81;4951484;29;20031;-69
2021/05/27 03:10:27;;;;;;;8.27;1.75;;;;;;;13.39;48.82;98305.28;4952201;28;20031;-69
2021/05/27 03:12:53;;;;;;;4.53;1.50;;;;;;;13.34;48.34;98310.13;4951467;29;20023;-70
2021/05/27 03:15:18;;;;;;;6.10;1.58;;;;;;;13.27;48.79;98321.59;4952408;28;20481;-69
2021/05/27 03:17:44;;;;;;;5.13;2.10;;;;;;;13.24;49.12;98325.81;4951651;29;20019;-69
2021/05/27 03:20:10;;;;;;;4.10;1.95;;;;;;;13.26;49.12;98319.97;4951870;29;20554;-69
2021/05/27 03:22:36;;;;;;;5.38;2.25;;;;;;;13.26;49.30;98322.72;4952434;29;20027;-69
2021/05/27 03:25:02;;;;;;;8.77;1.95;;;;;;;13.24;48.96;98325.00;4951522;28;20470;-69
2021/05/27 03:27:27;;;;;;;7.13;1.70;;;;;;;13.23;49.63;98324.19;4947198;28;20465;-69
2021/05/27 03:29:53;;;;;;;4.18;1.65;;;;;;;13.23;49.40;98331.66;4941613;28;20027;-69
2021/05/27 03:32:18;;;;;;;3.90;1.90;;;;;;;13.14;49.69;98315.06;4941140;29;20024;-68
2021/05/27 03:34:44;;;;;;;4.82;2.20;;;;;;;13.07;49.60;98325.72;4952627;29;20425;-69
2021/05/27 03:37:09;;;;;;;4.97;1.80;;;;;;;13.02;49.62;98315.66;4940177;29;20441;-68
2021/05/27 03:39:34;;;;;;;5.15;1.83;;;;;;;13.00;49.75;98306.09;4940670;29;20035;-70
2021/05/27 03:42:00;;;;;;;1.95;1.40;;;;;;;12.99;50.43;98310.78;4955108;28;20031;-69
2021/05/27 03:44:25;;;;;;;7.50;2.05;;;;;;;12.94;50.48;98303.50;4940271;29;20031;-69
2021/05/27 03:46:50;;;;;;;4.53;1.70;;;;;;;12.94;50.00;98306.25;4942124;29;20027;-69
2021/05/27 03:49:16;;;;;;;3.58;1.42;;;;;;;12.91;50.94;98311.53;4940718;29;20027;-69
2021/05/27 03:51:41;;;;;;;3.13;1.55;;;;;;;12.87;50.56;98308.63;4941518;28;20067;-69
2021/05/27 03:54:07;;;;;;;5.80;1.58;;;;;;;12.89;50.76;98314.63;4941176;29;20031;-70
2021/05/27 03:56:33;;;;;;;4.32;1.45;;;;;;;12.86;50.69;98306.16;4937738;28;20028;-70
2021/05/27 04:01:42;;;;;;;3.67;1.45;;;;;;;12.77;51.13;98304.19;4954717;29;20622;-69
2021/05/27 04:07:14;;;;;;;4.45;1.30;;;;;;;12.83;51.03;98312.34;4933938;29;20035;-70
2021/05/27 04:09:39;;;;;;;4.03;1.40;;;;;;;12.89;51.18;98333.06;4954400;29;20031;-69
2021/05/27 04:17:34;;;;;;;4.75;1.60;;;;;;;13.00;51.42;98337.19;4946718;29;20078;-70
2021/05/27 04:20:01;;;;;;;4.82;1.80;;;;;;;13.05;51.54;98339.81;4935080;29;20035;-69
2021/05/27 04:22:27;;;;;;;5.47;1.38;;;;;;;13.07;51.28;98333.97;4935514;29;20035;-70
2021/05/27 04:24:52;;;;;;;3.88;1.25;;;;;;;13.09;51.53;98337.22;4935285;29;20534;-69
2021/05/27 04:27:18;;;;;;;5.95;1.58;;;;;;;13.15;51.58;98346.19;4934905;29;20031;-70
2021/05/27 04:29:43;;;;;;;3.45;1.48;;;;;;;13.18;51.57;98354.59;4935068;29;20119;-70
2021/05/27 04:32:51;;;;;;;7.70;1.75;;;;;;;13.24;51.40;98350.59;4935958;29;20032;-70
2021/05/27 04:34:54;;;;;;;4.40;1.35;;;;;;;13.32;51.41;98348.22;4953184;29;20027;-70
2021/05/27 04:37:19;;;;;;;4.43;1.70;;;;;;;13.38;51.39;98355.19;4953658;28;20043;-69
2021/05/27 04:39:44;;;;;;;3.80;1.73;;;;;;;13.46;51.35;98350.88;4954209;29;20027;-70
2021/05/27 04:42:09;;;;;;;6.72;1.65;;;;;;;13.49;51.33;98345.53;4945848;29;20028;-70
2021/05/27 04:44:35;;;;;;;5.30;1.65;;;;;;;13.51;51.35;98345.22;4934914;29;20027;-70
2021/05/27 04:47:00;;;;;;;6.13;1.80;;;;;;;13.57;51.33;98359.66;4934872;29;20024;-70
2021/05/27 04:49:25;;;;;;;4.38;1.50;;;;;;;13.60;51.32;98365.38;4934708;29;20027;-70
2021/05/27 04:51:51;;;;;;;3.88;1.23;;;;;;;13.59;51.15;98363.75;4935221;29;20051;-70
2021/05/27 04:54:16;;;;;;;6.32;1.98;;;;;;;13.64;51.41;98362.78;4948757;29;20398;-70
2021/05/27 04:56:41;;;;;;;2.75;1.20;;;;;;;13.68;51.38;98366.53;4935900;29;20074;-69
2021/05/27 04:59:07;;;;;;;4.25;1.17;;;;;;;13.70;51.14;98364.25;4933448;29;20028;-69
2021/05/27 05:01:33;;;;;;;3.72;1.38;;;;;;;13.72;50.97;98363.94;4949288;28;20055;-69
2021/05/27 05:03:58;;;;;;;3.35;1.30;;;;;;;13.77;51.37;98361.84;4934297;29;20549;-70
2021/05/27 05:06:24;;;;;;;2.35;1.20;;;;;;;13.80;51.00;98369.50;4934484;29;20027;-69
2021/05/27 05:08:49;;;;;;;6.70;1.20;;;;;;;13.81;51.26;98373.03;4934588;29;20827;-69
2021/05/27 05:11:15;;;;;;;9.60;1.60;;;;;;;13.83;51.24;98377.13;4934258;29;20031;-70
2021/05/27 05:13:41;;;;;;;5.93;1.52;;;;;;;13.88;51.15;98369.81;4934211;29;20031;-69
2021/05/27 05:16:06;;;;;;;6.15;2.00;;;;;;;13.91;51.35;98370.00;4934495;29;20039;-70
2021/05/27 05:18:31;;;;;;;5.97;2.00;;;;;;;13.93;51.40;98370.50;4934235;29;20114;-70
2021/05/27 05:20:56;;;;;;;8.32;2.35;;;;;;;13.95;51.38;98375.66;4940054;29;20380;-70
2021/05/27 05:23:22;;;;;;;7.45;2.58;;;;;;;13.94;51.64;98377.63;4953172;28;20459;-70
2021/05/27 05:25:47;;;;;;;6.03;1.92;;;;;;;13.98;51.51;98380.53;4953189;29;20042;-70
2021/05/27 05:28:14;;;;;;;7.95;3.25;;;;;;;14.04;51.75;98382.03;4951847;28;20031;-70
2021/05/27 05:30:40;;;;;;;3.92;1.60;;;;;;;14.06;51.42;98382.50;4945064;29;20028;-70
2021/05/27 05:33:06;;;;;;;7.28;2.80;;;;;;;14.07;51.56;98389.66;4952609;29;20098;-70
2021/05/27 05:35:31;;;;;;;5.63;2.03;;;;;;;14.14;51.78;98392.75;4953074;29;20031;-70
2021/05/27 05:37:57;;;;;;;7.93;2.60;;;;;;;14.20;51.58;98406.41;4952714;29;20122;-70
2021/05/27 05:40:26;;;;;;;5.95;1.55;;;;;;;14.24;52.16;98399.09;4952955;29;20027;-69
2021/05/27 05:42:52;;;;;;;4.60;1.70;;;;;;;14.31;52.10;98409.66;4943323;29;20394;-70
2021/05/27 05:45:18;;;;;;;4.90;1.58;;;;;;;14.34;52.04;98396.00;4948203;28;20024;-70
2021/05/27 05:47:45;;;;;;;4.82;1.50;;;;;;;14.35;51.77;98408.69;4949947;29;20501;-70
2021/05/27 05:50:11;;;;;;;6.93;1.65;;;;;;;14.36;51.76;98406.75;4952438;28;20027;-70
2021/05/27 05:52:36;;;;;;;6.38;1.75;;;;;;;14.39;51.71;98403.34;4952729;29;20445;-70
2021/05/27 05:55:04;;;;;;;8.65;1.80;;;;;;;14.44;51.83;98406.75;4952454;29;20102;-70
2021/05/27 05:57:29;;;;;;;5.60;1.45;;;;;;;14.49;51.88;98416.81;4952213;29;20055;-70
2021/05/27 05:59:54;;;;;;;7.68;1.65;;;;;;;14.55;52.15;98415.50;4952520;28;20500;-70
2021/05/27 06:02:20;;;;;;;5.30;1.80;;;;;;;14.61;51.70;98416.19;4952802;29;20051;-70
2021/05/27 06:04:45;;;;;;;9.50;1.88;;;;;;;14.62;51.45;98416.97;4952405;29;20019;-70
2021/05/27 06:07:10;;;;;;;4.43;2.10;;;;;;;14.63;51.01;98418.59;4952305;29;20023;-69
2021/05/27 06:09:36;;;;;;;2.83;1.42;;;;;;;14.60;50.83;98414.56;4952513;29;20058;-70
2021/05/27 06:12:01;;;;;;;4.40;1.67;;;;;;;14.61;51.37;98409.84;4952580;29;20051;-70
2021/05/27 06:14:27;;;;;;;3.63;1.58;;;;;;;14.63;50.71;98413.91;4952575;29;20035;-69
2021/05/27 06:16:53;;;;;;;2.95;1.35;;;;;;;14.66;50.91;98410.50;4952343;29;20035;-70
2021/05/27 06:19:18;;;;;;;6.40;1.88;;;;;;;14.70;51.13;98414.25;4952425;29;20037;-70
2021/05/27 06:21:44;;;;;;;5.05;1.88;;;;;;;14.69;50.55;98415.38;4952282;28;20031;-70
2021/05/27 06:24:09;;;;;;;3.22;1.70;;;;;;;14.66;50.40;98415.19;4951280;29;20035;-70
2021/05/27 06:26:36;;;;;;;4.18;1.75;;;;;;;14.64;50.57;98409.19;4951947;29;20062;-70
2021/05/27 06:29:01;;;;;;;2.60;1.50;;;;;;;14.67;50.49;98414.06;4952301;29;20498;-70
2021/05/27 06:31:27;;;;;;;4.65;1.73;;;;;;;14.72;50.76;98409.22;4938024;29;20057;-70
2021/05/27 06:33:52;;;;;;;6.20;1.80;;;;;;;14.77;50.51;98402.72;4933165;29;20034;-70
2021/05/27 06:36:17;;;;;;;4.53;1.70;;;;;;;14.82;50.66;98399.81;4932662;29;20042;-70
2021/05/27 06:38:43;;;;;;;4.85;1.48;;;;;;;14.87;50.45;98407.09;4932613;29;20043;-69
2021/05/27 06:41:09;;;;;;;3.08;1.52;;;;;;;14.88;50.31;98405.97;4932988;29;20038;-70
2021/05/27 06:43:35;;;;;;;4.63;1.38;;;;;;;14.88;50.12;98406.75;4933194;29;20024;-70
2021/05/27 06:46:00;;;;;;;3.38;1.40;;;;;;;14.84;49.44;98405.00;4949473;29;20445;-70
2021/05/27 06:48:25;;;;;;;4.53;1.35;;;;;;;14.87;49.89;98396.06;4951825;29;20476;-70
2021/05/27 06:50:51;;;;;;;4.95;1.55;;;;;;;14.93;49.93;98404.97;4951746;29;20038;-70
2021/05/27 06:53:17;;;;;;;2.65;1.23;;;;;;;14.97;49.23;98405.94;4951880;29;20359;-70
2021/05/27 06:55:43;;;;;;;8.18;3.00;;;;;;;15.04;49.41;98417.31;4951668;29;20047;-70
2021/05/27 06:58:10;;;;;;;3.85;1.80;;;;;;;15.05;48.62;98413.41;4951758;29;20028;-70
2021/05/27 07:00:36;;;;;;;6.65;2.70;;;;;;;15.16;49.15;98424.94;4951788;29;20031;-70
2021/05/27 07:03:03;;;;;;;2.85;1.30;;;;;;;15.26;48.67;98426.56;4950427;29;20035;-69
2021/05/27 07:05:29;;;;;;;4.82;1.70;;;;;;;15.37;49.29;98424.25;4951657;29;20042;-70
2021/05/27 07:07:55;;;;;;;3.55;1.50;;;;;;;15.42;48.22;98424.06;4950785;28;20028;-69
2021/05/27 07:10:21;;;;;;;3.05;1.52;;;;;;;15.48;48.24;98425.53;4933912;29;20115;-70
2021/05/27 07:12:52;;;;;;;9.85;1.90;;;;;;;15.47;48.50;98424.69;4949470;29;20151;-70
2021/05/27 07:15:19;;;;;;;4.07;1.73;;;;;;;15.50;48.01;98422.41;4951003;28;20031;-69
2021/05/27 07:17:45;;;;;;;4.90;1.70;;;;;;;15.45;47.85;98432.50;4945825;29;20125;-68
2021/05/27 07:20:11;;;;;;;4.85;2.45;;;;;;;15.50;47.76;98427.94;4946706;28;20085;-68
2021/05/27 07:22:37;;;;;;;4.13;2.33;;;;;;;15.53;47.08;98439.16;4948969;29;20031;-67
2021/05/27 07:25:03;;;;;;;4.22;2.20;;;;;;;15.54;47.20;98428.91;4934512;29;20439;-68
2021/05/27 07:27:29;;;;;;;3.03;1.33;;;;;;;15.54;47.23;98431.69;4932568;29;20067;-68
2021/05/27 07:29:54;;;;;;;4.55;1.30;;;;;;;15.55;47.08;98433.31;4932176;29;20106;-68
2021/05/27 07:32:19;;;;;;;4.85;1.60;;;;;;;15.60;47.27;98433.94;4950238;28;20042;-69
2021/05/27 07:34:45;;;;;;;3.33;1.13;;;;;;;15.58;46.93;98433.44;4949618;29;20505;-68
2021/05/27 07:37:11;;;;;;;6.40;1.40;;;;;;;15.55;46.89;98430.53;4940186;29;20058;-69
2021/05/27 07:39:37;;;;;;;6.32;1.77;;;;;;;15.57;47.11;98428.25;4937470;29;20499;-68
2021/05/27 07:42:06;;;;;;;8.57;1.88;;;;;;;15.61;47.28;98429.22;4941649;29;20039;-68
2021/05/27 07:44:32;;;;;;;7.47;2.20;;;;;;;15.65;47.44;98432.13;4945559;29;20491;-68
2021/05/27 07:46:57;;;;;;;6.55;1.88;;;;;;;15.62;47.44;98428.06;4938347;29;20078;-68
2021/05/27 07:49:23;;;;;;;3.58;1.40;;;;;;;15.60;47.35;98425.63;4930737;29;20126;-68
2021/05/27 07:51:49;;;;;;;4.47;1.63;;;;;;;15.62;47.27;98425.31;4933590;29;20080;-69
2021/05/27 07:54:14;;;;;;;5.65;1.88;;;;;;;15.67;46.77;98418.78;4948039;28;20134;-69
2021/05/27 07:56:40;;;;;;;5.30;1.80;;;;;;;15.72;47.28;98418.59;4940628;29;20059;-70
2021/05/27 07:59:05;;;;;;;7.63;2.58;;;;;;;15.79;47.11;98413.38;4950859;28;20074;-69
2021/05/27 08:01:31;;;;;;;4.05;1.90;;;;;;;15.88;47.75;98418.88;4939931;29;20028;-70
2021/05/27 08:03:56;;;;;;;8.77;1.90;;;;;;;15.93;46.54;98421.47;4937400;29;20035;-68
2021/05/27 08:06:22;;;;;;;3.33;1.52;;;;;;;15.87;46.38;98428.31;4935923;29;20421;-70
2021/05/27 08:08:47;;;;;;;2.67;1.38;;;;;;;15.79;45.78;98427.19;4941192;28;20111;-70
2021/05/27 08:11:12;;;;;;;3.38;1.52;;;;;;;15.76;46.05;98433.38;4947455;28;20059;-69
2021/05/27 08:13:38;;;;;;;2.35;1.60;;;;;;;15.85;46.33;98425.88;4944834;28;20042;-70
2021/05/27 08:16:03;;;;;;;5.55;2.20;;;;;;;15.95;46.52;98433.00;4939383;29;20122;-70
2021/05/27 08:18:28;;;;;;;3.80;1.42;;;;;;;16.05;46.34;98432.66;4946314;28;20101;-68
2021/05/27 08:20:54;;;;;;;3.42;1.50;;;;;;;16.14;45.91;98434.53;4936627;29;20059;-67
2021/05/27 08:23:19;;;;;;;3.08;1.42;;;;;;;16.24;46.07;98433.34;4939784;28;20546;-69
2021/05/27 08:25:45;;;;;;;2.65;1.40;;;;;;;16.33;45.92;98423.03;4936729;29;20070;-70
2021/05/27 08:28:10;;;;;;;4.60;2.38;;;;;;;16.39;45.41;98429.19;4942643;29;20035;-69
2021/05/27 08:30:35;;;;;;;4.25;1.85;;;;;;;16.46;44.50;98426.69;4941868;28;20028;-69
2021/05/27 08:33:01;;;;;;;3.05;1.60;;;;;;;16.54;45.37;98428.56;4937983;29;20028;-68
2021/05/27 08:35:26;;;;;;;3.05;1.55;;;;;;;16.60;44.21;98427.22;4940433;29;20056;-70
2021/05/27 08:37:51;;;;;;;3.22;1.58;;;;;;;16.62;44.03;98424.13;4935784;29;20056;-69
2021/05/27 08:40:17;;;;;;;3.20;1.67;;;;;;;16.66;44.09;98423.13;4950162;28;20031;-69
2021/05/27 08:42:43;;;;;;;4.07;1.50;;;;;;;16.75;44.14;98427.78;4947315;29;20492;-69
2021/05/27 08:45:09;;;;;;;2.85;1.73;;;;;;;16.81;43.61;98431.97;4965155;28;20738;-68
2021/05/27 08:47:35;;;;;;;5.78;1.73;;;;;;;16.91;43.87;98427.97;4939947;29;20099;-69
2021/05/27 08:50:01;;;;;;;4.38;2.05;;;;;;;17.00;43.73;98430.69;4937385;29;21197;-70
2021/05/27 08:52:27;;;;;;;2.70;1.50;;;;;;;17.09;44.02;98442.50;4935650;29;20505;-70
2021/05/27 08:54:52;;;;;;;2.58;1.70;;;;;;;17.13;42.91;98446.22;4938318;29;20031;-70
2021/05/27 08:57:18;;;;;;;6.15;1.60;;;;;;;17.11;43.14;98440.22;4950967;28;20110;-70
2021/05/27 08:59:43;;;;;;;2.20;1.42;;;;;;;17.16;43.13;98437.22;4951612;29;20421;-70
2021/05/27 09:02:10;;;;;;;5.70;1.63;;;;;;;17.17;42.58;98438.03;4942111;28;20474;-69
2021/05/27 09:04:38;;;;;;;3.38;1.70;;;;;;;17.19;42.97;98436.53;4935831;29;20032;-70
2021/05/27 09:07:03;;;;;;;4.55;2.00;;;;;;;17.22;43.08;98446.94;4941738;29;20548;-71
2021/05/27 09:09:56;;;;;;;6.28;2.30;;;;;;;17.24;42.43;98441.06;4939752;29;20028;-70
2021/05/27 09:12:25;;;;;;;4.10;1.42;;;;;;;17.26;41.86;98435.97;4950045;28;20043;-71
2021/05/27 09:14:50;;;;;;;5.03;1.67;;;;;;;17.25;41.58;98435.19;4936737;28;20067;-72
2021/05/27 09:17:15;;;;;;;6.50;1.95;;;;;;;17.28;41.67;98438.44;4948590;28;20062;-72
2021/05/27 09:19:41;;;;;;;3.90;1.60;;;;;;;17.34;41.85;98426.78;4934214;29;20086;-72
2021/05/27 09:22:22;;;;;;;3.28;2.05;;;;;;;17.40;41.77;98441.22;4940817;29;20047;-73
2021/05/27 09:24:48;;;;;;;5.10;1.70;;;;;;;17.40;40.83;98432.91;4946076;29;20023;-71
2021/05/27 09:27:13;;;;;;;4.93;2.80;;;;;;;17.39;40.33;98445.97;4936154;28;20099;-70
2021/05/27 09:29:46;;;;;;;6.25;2.25;;;;;;;17.33;40.68;98446.50;4941779;28;20036;-71
2021/05/27 09:32:13;;;;;;;3.42;1.50;;;;;;;17.29;40.96;98453.91;4947983;28;20035;-69
2021/05/27 09:34:51;;;;;;;4.78;1.90;;;;;;;17.30;41.07;98461.88;4942041;28;20035;-70
2021/05/27 09:37:29;;;;;;;5.20;2.20;;;;;;;17.30;40.68;98448.00;4945488;28;20046;-70
2021/05/27 09:39:57;;;;;;;5.80;1.67;;;;;;;17.31;41.26;98459.91;4937732;29;20042;-71
2021/05/27 09:42:23;;;;;;;3.00;1.25;;;;;;;17.36;40.75;98456.91;4947595;29;20039;-71
2021/05/27 09:44:49;;;;;;;3.42;1.60;;;;;;;17.29;40.42;98459.44;4943753;29;20035;-71
2021/05/27 09:47:29;;;;;;;8.43;1.80;;;;;;;17.24;40.76;98458.50;4934505;29;20036;-71
2021/05/27 09:49:59;;;;;;;8.18;2.05;;;;;;;17.25;40.77;98457.34;4937369;29;20045;-71
2021/05/27 09:52:37;;;;;;;4.25;1.70;;;;;;;17.25;41.29;98462.91;4945348;28;20038;-71
2021/05/27 09:55:09;;;;;;;2.47;1.60;;;;;;;17.25;40.34;98465.69;4942356;29;20540;-71
2021/05/27 09:57:35;;;;;;;5.15;1.58;;;;;;;17.21;40.37;98469.44;4945426;29;20027;-71
2021/05/27 10:00:03;;;;;;;3.05;1.60;;;;;;;17.19;40.21;98478.13;4945376;29;20510;-71
2021/05/27 10:02:29;;;;;;;3.58;1.58;;;;;;;17.20;40.26;98468.66;4946860;29;20022;-71
2021/05/27 10:04:57;;;;;;;5.82;2.63;;;;;;;17.24;39.96;98471.53;4943176;29;20390;-71
2021/05/27 10:07:40;;;;;;;3.38;1.45;;;;;;;17.24;39.53;98471.53;4931724;29;20058;-70
2021/05/27 10:10:10;;;;;;;4.70;1.65;;;;;;;17.24;40.46;98469.59;4932584;29;20057;-72
2021/05/27 10:12:44;;;;;;;3.75;1.73;;;;;;;17.25;39.99;98470.38;4937451;29;20394;-71
2021/05/27 10:15:15;;;;;;;3.42;1.60;;;;;;;17.27;40.68;98462.56;4934123;29;20023;-71
2021/05/27 10:17:41;;;;;;;5.53;1.80;;;;;;;17.35;40.53;98463.59;4946503;29;20031;-70
2021/05/27 10:20:13;;;;;;;7.22;2.70;;;;;;;17.38;40.71;98460.97;4944822;29;20389;-71
2021/05/27 10:22:38;;;;;;;8.77;2.47;;;;;;;17.39;40.08;98467.31;4947547;29;20035;-71
2021/05/27 10:25:10;;;;;;;6.00;1.90;;;;;;;17.37;39.38;98464.06;4947435;28;20031;-72
2021/05/27 10:27:36;;;;;;;5.65;1.67;;;;;;;17.35;39.74;98469.16;4944274;29;20031;-69
2021/05/27 10:30:05;;;;;;;5.93;1.70;;;;;;;17.37;39.65;98462.13;4936755;28;20514;-71
2021/05/27 10:32:31;;;;;;;6.55;2.10;;;;;;;17.37;40.03;98458.53;4940717;29;20090;-70
2021/05/27 10:34:56;;;;;;;3.30;1.83;;;;;;;17.38;38.79;98466.53;4947664;29;20489;-70
2021/05/27 10:37:43;;;;;;;4.72;1.65;;;;;;;17.34;38.63;98473.06;4942469;28;20051;-71
2021/05/27 10:40:11;;;;;;;3.65;1.90;;;;;;;17.24;38.65;98469.59;4938682;29;20043;-71
2021/05/27 10:42:55;;;;;;;4.60;1.88;;;;;;;17.21;38.86;98473.03;4943635;29;20717;-71
2021/05/27 10:45:24;;;;;;;3.95;2.00;;;;;;;17.24;39.02;98475.13;4949668;28;20493;-71
2021/05/27 10:48:11;;;;;;;7.13;2.10;;;;;;;17.23;38.86;98478.22;4949828;29;20027;-68
2021/05/27 10:51:02;;;;;;;1.58;1.42;;;;;;;17.20;39.01;98476.97;4941185;29;20059;-70
2021/05/27 10:53:33;;;;;;;5.40;2.00;;;;;;;17.22;39.64;98487.69;4948734;28;20132;-71
2021/05/27 10:55:59;;;;;;;9.27;3.05;;;;;;;17.24;39.44;98483.44;4947003;28;20031;-70
2021/05/27 11:01:14;;;;;;;6.63;2.05;;;;;;;17.29;39.42;98487.16;4943666;29;20052;-68
2021/05/27 11:03:54;;;;;;;7.65;2.58;;;;;;;17.35;40.04;98491.31;4945055;28;20023;-67
2021/05/27 11:06:36;;;;;;;5.22;2.10;;;;;;;17.40;40.24;98491.13;4941039;28;20024;-70
2021/05/27 11:09:07;;;;;;;2.88;1.90;;;;;;;17.38;39.90;98494.25;4946267;29;20035;-70
2021/05/27 11:11:46;;;;;;;4.68;1.92;;;;;;;17.33;39.61;98490.84;4942690;29;20028;-69
2021/05/27 11:14:21;;;;;;;4.78;1.70;;;;;;;17.31;39.34;98484.88;4943639;28;20035;-70
2021/05/27 11:17:02;;;;;;;5.35;2.00;;;;;;;17.31;39.19;98484.88;4939971;29;20067;-69
2021/05/27 11:25:16;;;;;;;6.18;2.17;;;;;;;17.29;39.57;98489.94;4934196;29;20073;-68
2021/05/27 11:27:50;;;;;;;5.20;2.23;;;;;;;17.33;39.59;98483.38;4944980;29;20019;-70
2021/05/27 11:30:40;;;;;;;5.75;2.08;;;;;;;17.32;39.59;98486.50;4947327;29;20031;-69
2021/05/27 11:33:11;;;;;;;2.50;1.80;;;;;;;17.33;39.05;98488.91;4954803;28;20035;-70
2021/05/27 11:35:40;;;;;;;2.97;1.52;;;;;;;17.33;38.42;98482.53;4954895;29;20043;-69
2021/05/27 11:38:08;;;;;;;4.78;2.00;;;;;;;17.31;38.55;98491.22;4943445;29;20040;-70
2021/05/27 11:40:40;;;;;;;5.30;2.10;;;;;;;17.26;38.54;98483.94;4943540;29;20032;-69
2021/05/27 11:43:06;;;;;;;3.05;1.90;;;;;;;17.26;38.73;98486.69;4943785;29;20043;-70
2021/05/27 11:45:43;;;;;;;4.93;1.90;;;;;;;17.32;39.16;98487.28;4951920;29;20055;-69
2021/05/27 11:48:19;;;;;;;2.47;1.52;;;;;;;17.46;39.82;98486.97;4941700;29;20027;-70
2021/05/27 11:50:45;;;;;;;5.88;1.80;;;;;;;17.54;38.75;98488.88;4949634;28;20023;-71
2021/05/27 11:53:11;;;;;;;4.28;1.65;;;;;;;17.47;38.07;98488.59;4944045;29;20035;-70
2021/05/27 11:55:37;;;;;;;4.72;1.80;;;;;;;17.41;38.94;98490.78;4947390;29;20383;-70
2021/05/27 11:58:04;;;;;;;5.20;1.90;;;;;;;17.42;39.13;98474.94;4939798;29;20046;-70